Ituna, Canada
Current Conditions -  °F | °C
As of 12:40 PM on Saturday 20 Dec 2014 (Local Time) from CYQV Reporting Station
Light Snow Light Snow  
Wind Chill:   Ceiling: 200
Heat Index: 19°   Visibility: 0.75mi
Dew Point: 19°   Wind: 14mph
Humidity: 100%   Direction: 160°SSE
Pressure: 29.79"   Gusts: NA
Location:  51.17°N, 103.5°W
Report Text: CYQV 201840Z AUTO 16012KT 3/4SM -SN OVC002 M07/M07 A2979 RMK SLP121
Loading
Personal Weather Stations






























Interactive Weather Map New forecast layout! Learn more

10-Day Weather Forecast

Advertisements
Track Severe Weather on mobile